DLH8262 EPKK-EHRD
Flight info
| Callsign | DLH8262 |
|---|---|
| Flight time | N/A |
| Altitude | 38000 |
| Route | NUMBA T738 LASIS DCT BOLBO DCT MAG DCT RKN |
| Aircraft | A320/M-SDE3FGHIRWY/LB1 |
Departure
| Time | 2026-05-04 17:47 |
|---|---|
| Airport | Kraków John Paul II International Airport (EPKK) |
Arrival
| Time | N/A |
|---|---|
| Airport | Rotterdam The Hague Airport (EHRD) |
| Time | Latitude | Longitude | Altitude | Speed | Heading |
|---|---|---|---|---|---|
| 2026-05-04 17:20 | 50.07600 | 19.80229 | 790 ft | 0 kts | 347° |
| 2026-05-04 17:44 | 50.07617 | 19.80223 | 789 ft | 2 kts | 347° |
| 2026-05-04 17:44 | 50.07649 | 19.80236 | 790 ft | 5 kts | 52° |
| 2026-05-04 17:44 | 50.07654 | 19.80288 | 790 ft | 6 kts | 81° |
| 2026-05-04 17:44 | 50.07661 | 19.80345 | 790 ft | 5 kts | 77° |
| 2026-05-04 17:45 | 50.07685 | 19.80385 | 789 ft | 10 kts | 13° |
| 2026-05-04 17:45 | 50.07777 | 19.80360 | 790 ft | 14 kts | 347° |
| 2026-05-04 17:45 | 50.07835 | 19.80340 | 790 ft | 6 kts | 347° |
| 2026-05-04 17:45 | 50.07887 | 19.80322 | 789 ft | 13 kts | 347° |
| 2026-05-04 17:46 | 50.07981 | 19.80288 | 789 ft | 14 kts | 347° |
| 2026-05-04 17:46 | 50.08016 | 19.80218 | 789 ft | 3 kts | 258° |
| 2026-05-04 17:46 | 50.08014 | 19.80204 | 789 ft | 6 kts | 257° |
| 2026-05-04 17:46 | 50.07954 | 19.79771 | 789 ft | 78 kts | 258° |
| 2026-05-04 17:47 | 50.07795 | 19.78630 | 791 ft | 136 kts | 257° |
| 2026-05-04 17:47 | 50.07571 | 19.77027 | 1143 ft | 153 kts | 258° |
| 2026-05-04 17:47 | 50.07356 | 19.75436 | 1918 ft | 149 kts | 258° |
| 2026-05-04 17:47 | 50.07146 | 19.73769 | 2352 ft | 167 kts | 258° |
| 2026-05-04 17:48 | 50.06936 | 19.71866 | 2647 ft | 190 kts | 258° |
| 2026-05-04 17:48 | 50.06702 | 19.69753 | 2972 ft | 209 kts | 258° |
| 2026-05-04 17:48 | 50.06603 | 19.67381 | 3370 ft | 233 kts | 276° |
| 2026-05-04 17:48 | 50.07079 | 19.64819 | 3921 ft | 255 kts | 285° |
| 2026-05-04 17:49 | 50.07649 | 19.62175 | 4811 ft | 261 kts | 285° |
| 2026-05-04 17:49 | 50.08242 | 19.59482 | 5726 ft | 264 kts | 286° |
| 2026-05-04 17:49 | 50.08843 | 19.56756 | 6639 ft | 268 kts | 287° |
| 2026-05-04 17:49 | 50.09451 | 19.53990 | 7506 ft | 272 kts | 286° |
| 2026-05-04 17:50 | 50.10064 | 19.51189 | 8378 ft | 275 kts | 286° |
| 2026-05-04 17:50 | 50.10681 | 19.48348 | 9251 ft | 279 kts | 286° |
| 2026-05-04 17:50 | 50.11305 | 19.45458 | 10103 ft | 283 kts | 285° |
| 2026-05-04 17:50 | 50.11950 | 19.42437 | 10456 ft | 305 kts | 285° |
| 2026-05-04 17:51 | 50.12639 | 19.39207 | 10906 ft | 321 kts | 285° |
| 2026-05-04 17:51 | 50.13354 | 19.35876 | 11630 ft | 326 kts | 285° |
| 2026-05-04 17:51 | 50.14081 | 19.32494 | 12429 ft | 330 kts | 285° |
| 2026-05-04 17:51 | 50.14812 | 19.29089 | 13211 ft | 333 kts | 285° |
| 2026-05-04 17:52 | 50.15545 | 19.25658 | 13968 ft | 336 kts | 285° |
| 2026-05-04 17:52 | 50.16289 | 19.22182 | 14648 ft | 339 kts | 285° |
| 2026-05-04 17:52 | 50.17036 | 19.18680 | 15324 ft | 342 kts | 285° |
| 2026-05-04 17:52 | 50.17775 | 19.15191 | 16009 ft | 344 kts | 285° |
| 2026-05-04 17:53 | 50.18529 | 19.11627 | 16674 ft | 348 kts | 285° |
| 2026-05-04 17:53 | 50.19286 | 19.08032 | 17352 ft | 351 kts | 285° |
| 2026-05-04 17:53 | 50.20050 | 19.04396 | 18007 ft | 354 kts | 285° |
| 2026-05-04 17:53 | 50.20822 | 19.00732 | 18608 ft | 357 kts | 285° |
| 2026-05-04 17:54 | 50.21602 | 18.97037 | 19164 ft | 360 kts | 285° |
| 2026-05-04 17:54 | 50.22393 | 18.93299 | 19708 ft | 364 kts | 286° |
| 2026-05-04 17:54 | 50.23186 | 18.89535 | 20260 ft | 367 kts | 286° |
| 2026-05-04 17:54 | 50.23983 | 18.85729 | 20797 ft | 370 kts | 286° |
| 2026-05-04 17:55 | 50.24787 | 18.81887 | 21318 ft | 374 kts | 287° |
| 2026-05-04 17:55 | 50.25598 | 18.78007 | 21835 ft | 377 kts | 287° |
| 2026-05-04 17:55 | 50.26414 | 18.74087 | 22336 ft | 381 kts | 287° |
| 2026-05-04 17:55 | 50.27232 | 18.70133 | 22836 ft | 384 kts | 287° |
| 2026-05-04 17:56 | 50.28052 | 18.66145 | 23328 ft | 387 kts | 287° |
| 2026-05-04 17:56 | 50.28881 | 18.62113 | 23768 ft | 391 kts | 287° |
| 2026-05-04 17:56 | 50.29717 | 18.58056 | 24188 ft | 393 kts | 287° |
| 2026-05-04 17:56 | 50.30559 | 18.53974 | 24616 ft | 395 kts | 287° |
| 2026-05-04 17:57 | 50.31405 | 18.49874 | 25044 ft | 397 kts | 287° |
| 2026-05-04 17:57 | 50.32251 | 18.45756 | 25468 ft | 399 kts | 287° |
| 2026-05-04 17:57 | 50.33088 | 18.41659 | 25881 ft | 401 kts | 287° |
| 2026-05-04 17:57 | 50.33935 | 18.37504 | 26296 ft | 403 kts | 287° |
| 2026-05-04 17:58 | 50.34786 | 18.33314 | 26704 ft | 404 kts | 287° |
| 2026-05-04 17:58 | 50.35639 | 18.29105 | 27101 ft | 406 kts | 287° |
| 2026-05-04 17:58 | 50.36495 | 18.24880 | 27358 ft | 407 kts | 287° |
| 2026-05-04 17:58 | 50.37478 | 18.20718 | 27653 ft | 409 kts | 296° |
| 2026-05-04 17:59 | 50.38810 | 18.16763 | 28035 ft | 411 kts | 297° |
| 2026-05-04 17:59 | 50.40154 | 18.12789 | 28424 ft | 413 kts | 297° |
| 2026-05-04 17:59 | 50.42856 | 18.04781 | 29208 ft | 417 kts | 297° |
| 2026-05-04 18:00 | 50.44202 | 18.00789 | 29577 ft | 418 kts | 297° |
| 2026-05-04 18:00 | 50.45578 | 17.96708 | 29952 ft | 420 kts | 297° |
| 2026-05-04 18:00 | 50.46947 | 17.92637 | 30281 ft | 422 kts | 297° |
| 2026-05-04 18:00 | 50.48310 | 17.88566 | 30579 ft | 423 kts | 296° |
| 2026-05-04 18:01 | 50.49677 | 17.84470 | 30872 ft | 424 kts | 296° |
| 2026-05-04 18:01 | 50.51049 | 17.80351 | 31167 ft | 426 kts | 296° |
| 2026-05-04 18:01 | 50.52422 | 17.76225 | 31471 ft | 426 kts | 296° |
| 2026-05-04 18:02 | 50.55159 | 17.67988 | 32314 ft | 423 kts | 296° |
| 2026-05-04 18:02 | 50.56518 | 17.63901 | 32718 ft | 422 kts | 296° |
| 2026-05-04 18:02 | 50.57858 | 17.59869 | 33109 ft | 420 kts | 296° |
| 2026-05-04 18:02 | 50.59225 | 17.55745 | 33505 ft | 419 kts | 296° |
| 2026-05-04 18:03 | 50.60571 | 17.51679 | 33915 ft | 418 kts | 296° |
| 2026-05-04 18:03 | 50.61891 | 17.47683 | 34265 ft | 416 kts | 296° |
| 2026-05-04 18:03 | 50.63223 | 17.43641 | 34583 ft | 415 kts | 296° |
| 2026-05-04 18:03 | 50.64552 | 17.39601 | 34889 ft | 415 kts | 296° |
| 2026-05-04 18:04 | 50.65877 | 17.35563 | 35172 ft | 414 kts | 296° |
| 2026-05-04 18:04 | 50.67197 | 17.31529 | 35450 ft | 414 kts | 296° |
| 2026-05-04 18:04 | 50.69833 | 17.23467 | 35984 ft | 413 kts | 296° |
| 2026-05-04 18:05 | 50.71146 | 17.19439 | 36250 ft | 413 kts | 296° |
| 2026-05-04 18:05 | 50.72460 | 17.15402 | 36497 ft | 413 kts | 296° |
| 2026-05-04 18:05 | 50.73769 | 17.11373 | 36761 ft | 412 kts | 295° |
| 2026-05-04 18:05 | 50.75074 | 17.07345 | 36999 ft | 412 kts | 295° |
| 2026-05-04 18:06 | 50.77682 | 16.99289 | 37474 ft | 411 kts | 295° |
| 2026-05-04 18:06 | 50.78980 | 16.95266 | 37708 ft | 411 kts | 295° |
| 2026-05-04 18:06 | 50.80279 | 16.91240 | 37889 ft | 411 kts | 295° |
| 2026-05-04 18:07 | 50.82870 | 16.83200 | 37933 ft | 410 kts | 295° |
| 2026-05-04 18:07 | 50.85453 | 16.75156 | 37932 ft | 410 kts | 295° |
| 2026-05-04 18:08 | 50.88026 | 16.67109 | 37931 ft | 409 kts | 295° |
| 2026-05-04 18:08 | 50.90585 | 16.59062 | 37940 ft | 409 kts | 295° |
| 2026-05-04 18:09 | 50.95694 | 16.42936 | 37952 ft | 409 kts | 295° |
| 2026-05-04 18:10 | 50.98243 | 16.34868 | 37954 ft | 409 kts | 295° |
| 2026-05-04 18:10 | 51.00782 | 16.26806 | 37954 ft | 408 kts | 295° |
| 2026-05-04 18:11 | 51.03291 | 16.18787 | 37963 ft | 408 kts | 294° |
| 2026-05-04 18:11 | 51.05814 | 16.10696 | 37954 ft | 408 kts | 294° |
| 2026-05-04 18:12 | 51.08332 | 16.02605 | 37961 ft | 408 kts | 294° |
| 2026-05-04 18:12 | 51.10849 | 15.94507 | 37964 ft | 408 kts | 294° |
| 2026-05-04 18:13 | 51.13354 | 15.86415 | 37959 ft | 408 kts | 294° |
| 2026-05-04 18:14 | 51.17095 | 15.74246 | 37955 ft | 407 kts | 294° |
| 2026-05-04 18:14 | 51.19584 | 15.66126 | 37955 ft | 407 kts | 294° |
| 2026-05-04 18:15 | 51.24432 | 15.50258 | 37952 ft | 408 kts | 294° |
| 2026-05-04 18:16 | 51.26896 | 15.42151 | 37954 ft | 408 kts | 294° |
| 2026-05-04 18:16 | 51.29365 | 15.33991 | 37954 ft | 408 kts | 293° |
| 2026-05-04 18:17 | 51.33062 | 15.21709 | 37961 ft | 409 kts | 292° |
| 2026-05-04 18:18 | 51.35896 | 15.08896 | 37964 ft | 407 kts | 286° |
| 2026-05-04 18:18 | 51.37678 | 15.00270 | 37965 ft | 408 kts | 286° |
| 2026-05-04 18:19 | 51.40356 | 14.87331 | 37963 ft | 408 kts | 287° |
| 2026-05-04 18:19 | 51.42149 | 14.78707 | 37976 ft | 408 kts | 286° |
| 2026-05-04 18:20 | 51.43932 | 14.70081 | 37972 ft | 407 kts | 286° |
| 2026-05-04 18:20 | 51.45406 | 14.62900 | 37975 ft | 407 kts | 286° |
| 2026-05-04 18:21 | 51.47461 | 14.52868 | 37975 ft | 407 kts | 286° |
| 2026-05-04 18:21 | 51.49223 | 14.44243 | 37980 ft | 407 kts | 286° |
| 2026-05-04 18:22 | 51.50971 | 14.35602 | 37985 ft | 407 kts | 286° |
| 2026-05-04 18:22 | 51.52433 | 14.28365 | 37986 ft | 406 kts | 286° |
| 2026-05-04 18:23 | 51.54163 | 14.19786 | 37986 ft | 406 kts | 285° |
| 2026-05-04 18:23 | 51.55900 | 14.11151 | 37988 ft | 406 kts | 285° |
| 2026-05-04 18:24 | 51.57624 | 14.02511 | 37988 ft | 406 kts | 285° |
| 2026-05-04 18:24 | 51.59340 | 13.93879 | 37985 ft | 405 kts | 285° |
| 2026-05-04 18:25 | 51.61046 | 13.85242 | 37983 ft | 405 kts | 285° |
| 2026-05-04 18:25 | 51.62739 | 13.76603 | 37978 ft | 405 kts | 285° |
| 2026-05-04 18:26 | 51.64433 | 13.67957 | 37974 ft | 405 kts | 285° |
| 2026-05-04 18:26 | 51.66126 | 13.59300 | 37969 ft | 405 kts | 285° |
| 2026-05-04 18:27 | 51.67811 | 13.50634 | 37971 ft | 406 kts | 284° |
| 2026-05-04 18:27 | 51.69489 | 13.41948 | 37958 ft | 406 kts | 284° |
| 2026-05-04 18:28 | 51.71147 | 13.33304 | 37958 ft | 406 kts | 284° |
| 2026-05-04 18:28 | 51.72816 | 13.24593 | 37957 ft | 407 kts | 284° |
| 2026-05-04 18:29 | 51.74479 | 13.15872 | 37961 ft | 407 kts | 284° |
| 2026-05-04 18:29 | 51.76136 | 13.07126 | 37957 ft | 407 kts | 284° |
| 2026-05-04 18:30 | 51.78611 | 12.94003 | 37968 ft | 407 kts | 284° |
| 2026-05-04 18:31 | 51.80253 | 12.85254 | 37961 ft | 407 kts | 284° |
| 2026-05-04 18:31 | 51.81892 | 12.76492 | 37965 ft | 407 kts | 284° |
| 2026-05-04 18:32 | 51.83524 | 12.67740 | 37960 ft | 407 kts | 284° |
| 2026-05-04 18:32 | 51.85135 | 12.59026 | 37968 ft | 407 kts | 284° |
| 2026-05-04 18:33 | 51.86749 | 12.50243 | 37979 ft | 407 kts | 284° |
| 2026-05-04 18:33 | 51.88359 | 12.41461 | 37979 ft | 407 kts | 284° |
| 2026-05-04 18:34 | 51.89960 | 12.32674 | 37977 ft | 407 kts | 283° |
| 2026-05-04 18:34 | 51.91550 | 12.23883 | 37973 ft | 407 kts | 283° |
| 2026-05-04 18:35 | 51.93144 | 12.15081 | 37981 ft | 407 kts | 283° |
| 2026-05-04 18:35 | 51.94735 | 12.06268 | 37989 ft | 407 kts | 283° |
| 2026-05-04 18:36 | 51.96312 | 11.97455 | 37976 ft | 407 kts | 283° |
| 2026-05-04 18:36 | 51.97864 | 11.88688 | 37980 ft | 407 kts | 283° |
| 2026-05-04 18:37 | 51.99366 | 11.79844 | 37963 ft | 405 kts | 278° |
| 2026-05-04 18:37 | 51.99919 | 11.70783 | 37957 ft | 403 kts | 272° |
| 2026-05-04 18:38 | 52.00357 | 11.61696 | 37953 ft | 403 kts | 272° |
| 2026-05-04 18:38 | 52.00786 | 11.52617 | 37949 ft | 403 kts | 272° |
| 2026-05-04 18:39 | 52.01209 | 11.43529 | 37947 ft | 404 kts | 272° |
| 2026-05-04 18:39 | 52.01619 | 11.34432 | 37945 ft | 404 kts | 272° |
| 2026-05-04 18:40 | 52.02022 | 11.25331 | 37946 ft | 404 kts | 272° |
| 2026-05-04 18:40 | 52.02422 | 11.16225 | 37947 ft | 405 kts | 272° |
| 2026-05-04 18:41 | 52.02817 | 11.07153 | 37954 ft | 405 kts | 272° |
| 2026-05-04 18:41 | 52.03203 | 10.98018 | 37955 ft | 406 kts | 271° |
| 2026-05-04 18:42 | 52.03582 | 10.88849 | 37963 ft | 407 kts | 271° |
| 2026-05-04 18:42 | 52.03954 | 10.79668 | 37967 ft | 407 kts | 271° |
| 2026-05-04 18:43 | 52.04322 | 10.70484 | 37970 ft | 408 kts | 271° |
| 2026-05-04 18:43 | 52.04678 | 10.61273 | 37971 ft | 409 kts | 271° |
| 2026-05-04 18:44 | 52.05031 | 10.52039 | 37971 ft | 410 kts | 271° |
| 2026-05-04 18:44 | 52.05384 | 10.42798 | 37972 ft | 410 kts | 271° |
| 2026-05-04 18:45 | 52.05730 | 10.33532 | 37970 ft | 411 kts | 271° |
| 2026-05-04 18:45 | 52.06067 | 10.24305 | 37974 ft | 411 kts | 271° |
| 2026-05-04 18:46 | 52.06389 | 10.15029 | 37981 ft | 411 kts | 271° |
| 2026-05-04 18:46 | 52.06713 | 10.05753 | 37981 ft | 411 kts | 271° |
| 2026-05-04 18:47 | 52.07028 | 9.96457 | 37987 ft | 411 kts | 271° |
| 2026-05-04 18:47 | 52.07332 | 9.87170 | 37994 ft | 412 kts | 271° |
| 2026-05-04 18:48 | 52.07628 | 9.77864 | 37986 ft | 412 kts | 271° |
| 2026-05-04 18:48 | 52.07921 | 9.68573 | 37988 ft | 412 kts | 271° |
| 2026-05-04 18:49 | 52.08202 | 9.59281 | 37987 ft | 411 kts | 270° |
| 2026-05-04 18:49 | 52.08471 | 9.49998 | 37984 ft | 411 kts | 270° |
| 2026-05-04 18:50 | 52.08737 | 9.40698 | 37982 ft | 411 kts | 270° |
| 2026-05-04 18:50 | 52.08999 | 9.31430 | 37987 ft | 411 kts | 270° |
| 2026-05-04 18:51 | 52.09259 | 9.22147 | 37992 ft | 410 kts | 270° |
| 2026-05-04 18:51 | 52.09509 | 9.12877 | 37991 ft | 410 kts | 270° |
| 2026-05-04 18:52 | 52.09741 | 9.03665 | 37988 ft | 410 kts | 270° |
| 2026-05-04 18:52 | 52.09967 | 8.94395 | 37987 ft | 410 kts | 270° |
| 2026-05-04 18:53 | 52.10196 | 8.85121 | 37987 ft | 410 kts | 270° |
| 2026-05-04 18:53 | 52.10418 | 8.75845 | 37984 ft | 411 kts | 270° |
| 2026-05-04 18:54 | 52.10625 | 8.66542 | 37983 ft | 411 kts | 269° |
| 2026-05-04 18:54 | 52.10824 | 8.57272 | 37977 ft | 411 kts | 269° |
| 2026-05-04 18:55 | 52.11025 | 8.47970 | 37976 ft | 411 kts | 269° |
| 2026-05-04 18:55 | 52.11308 | 8.34029 | 37744 ft | 407 kts | 269° |
| 2026-05-04 18:56 | 52.11399 | 8.29500 | 37576 ft | 395 kts | 269° |
| 2026-05-04 18:56 | 52.11486 | 8.25041 | 36823 ft | 398 kts | 268° |
| 2026-05-04 18:56 | 52.11565 | 8.20495 | 35936 ft | 404 kts | 268° |
| 2026-05-04 18:56 | 52.11647 | 8.15963 | 35623 ft | 396 kts | 268° |
| 2026-05-04 18:57 | 52.11728 | 8.11528 | 35362 ft | 387 kts | 268° |
| 2026-05-04 18:57 | 52.11804 | 8.07252 | 35088 ft | 379 kts | 267° |
| 2026-05-04 18:57 | 52.11873 | 8.02989 | 34654 ft | 376 kts | 267° |
| 2026-05-04 18:57 | 52.11941 | 7.98744 | 34148 ft | 375 kts | 266° |
| 2026-05-04 18:58 | 52.12006 | 7.94508 | 33612 ft | 374 kts | 266° |
| 2026-05-04 18:58 | 52.12071 | 7.90280 | 33162 ft | 373 kts | 266° |
| 2026-05-04 18:58 | 52.12135 | 7.86075 | 32850 ft | 372 kts | 266° |
| 2026-05-04 18:58 | 52.12197 | 7.81876 | 32581 ft | 371 kts | 267° |
| 2026-05-04 18:59 | 52.12260 | 7.77681 | 32315 ft | 370 kts | 267° |
| 2026-05-04 18:59 | 52.12321 | 7.73503 | 32052 ft | 370 kts | 267° |
| 2026-05-04 18:59 | 52.12383 | 7.69321 | 31794 ft | 369 kts | 267° |
| 2026-05-04 18:59 | 52.12443 | 7.65155 | 31542 ft | 368 kts | 267° |
| 2026-05-04 19:00 | 52.12500 | 7.61002 | 31280 ft | 367 kts | 267° |
| 2026-05-04 19:00 | 52.12552 | 7.56855 | 31028 ft | 366 kts | 266° |
| 2026-05-04 19:00 | 52.12600 | 7.52713 | 30778 ft | 365 kts | 267° |
| 2026-05-04 19:00 | 52.12648 | 7.48594 | 30530 ft | 363 kts | 267° |
| 2026-05-04 19:01 | 52.12696 | 7.44534 | 30272 ft | 355 kts | 266° |
| 2026-05-04 19:01 | 52.12745 | 7.40552 | 30013 ft | 349 kts | 267° |
| 2026-05-04 19:01 | 52.12795 | 7.36623 | 29742 ft | 346 kts | 266° |
| 2026-05-04 19:01 | 52.12843 | 7.32717 | 29457 ft | 345 kts | 266° |
| 2026-05-04 19:02 | 52.12885 | 7.28816 | 29172 ft | 343 kts | 266° |
| 2026-05-04 19:02 | 52.12923 | 7.24944 | 28850 ft | 342 kts | 266° |
| 2026-05-04 19:02 | 52.12958 | 7.21069 | 28573 ft | 342 kts | 266° |
| 2026-05-04 19:02 | 52.12992 | 7.17260 | 28304 ft | 341 kts | 266° |
| 2026-05-04 19:03 | 52.13028 | 7.13370 | 27671 ft | 347 kts | 267° |
| 2026-05-04 19:03 | 52.13065 | 7.09431 | 27060 ft | 349 kts | 267° |
| 2026-05-04 19:03 | 52.13100 | 7.05482 | 26532 ft | 349 kts | 267° |
| 2026-05-04 19:03 | 52.13132 | 7.01536 | 26038 ft | 348 kts | 267° |
| 2026-05-04 19:04 | 52.13165 | 6.97592 | 25549 ft | 347 kts | 267° |
| 2026-05-04 19:04 | 52.13198 | 6.93672 | 25081 ft | 347 kts | 267° |
| 2026-05-04 19:04 | 52.13227 | 6.89744 | 24619 ft | 346 kts | 267° |
| 2026-05-04 19:04 | 52.13251 | 6.85825 | 24159 ft | 346 kts | 267° |
| 2026-05-04 19:05 | 52.13276 | 6.81921 | 23707 ft | 346 kts | 268° |
| 2026-05-04 19:05 | 52.13336 | 6.78001 | 23207 ft | 347 kts | 273° |
| 2026-05-04 19:05 | 52.13811 | 6.74153 | 22730 ft | 349 kts | 285° |
| 2026-05-04 19:05 | 52.14640 | 6.70442 | 22262 ft | 348 kts | 288° |
| 2026-05-04 19:06 | 52.15472 | 6.66748 | 21831 ft | 346 kts | 288° |
| 2026-05-04 19:06 | 52.16291 | 6.63075 | 21413 ft | 344 kts | 288° |
| 2026-05-04 19:06 | 52.17101 | 6.59420 | 21001 ft | 342 kts | 288° |
| 2026-05-04 19:06 | 52.17904 | 6.55786 | 20592 ft | 340 kts | 288° |
| 2026-05-04 19:07 | 52.18697 | 6.52173 | 20215 ft | 337 kts | 288° |
| 2026-05-04 19:07 | 52.19484 | 6.48581 | 19835 ft | 335 kts | 288° |
| 2026-05-04 19:07 | 52.20263 | 6.45036 | 19132 ft | 343 kts | 289° |
| 2026-05-04 19:07 | 52.21079 | 6.41332 | 18409 ft | 351 kts | 289° |
| 2026-05-04 19:08 | 52.21911 | 6.37549 | 17741 ft | 356 kts | 289° |
| 2026-05-04 19:08 | 52.22743 | 6.33750 | 17223 ft | 354 kts | 289° |
| 2026-05-04 19:08 | 52.23568 | 6.29973 | 16739 ft | 352 kts | 289° |
| 2026-05-04 19:08 | 52.24387 | 6.26226 | 16250 ft | 348 kts | 289° |
| 2026-05-04 19:09 | 52.25193 | 6.22537 | 15471 ft | 343 kts | 289° |
| 2026-05-04 19:09 | 52.25991 | 6.18880 | 14650 ft | 342 kts | 289° |
| 2026-05-04 19:09 | 52.26784 | 6.15240 | 14019 ft | 339 kts | 289° |
| 2026-05-04 19:09 | 52.27569 | 6.11619 | 13360 ft | 337 kts | 289° |
| 2026-05-04 19:10 | 52.28083 | 6.09243 | 12906 ft | 335 kts | 289° |
| 2026-05-04 19:10 | 52.28853 | 6.05669 | 12245 ft | 331 kts | 289° |
| 2026-05-04 19:10 | 52.29613 | 6.02131 | 11597 ft | 328 kts | 289° |
| 2026-05-04 19:10 | 52.30367 | 5.98614 | 11063 ft | 327 kts | 289° |
| 2026-05-04 19:11 | 52.31103 | 5.95166 | 10921 ft | 315 kts | 289° |
| 2026-05-04 19:11 | 52.31813 | 5.91848 | 10787 ft | 304 kts | 289° |
| 2026-05-04 19:11 | 52.32502 | 5.88638 | 10656 ft | 294 kts | 289° |
| 2026-05-04 19:11 | 52.33173 | 5.85505 | 10378 ft | 290 kts | 289° |
| 2026-05-04 19:12 | 52.33830 | 5.82433 | 9981 ft | 286 kts | 289° |
| 2026-05-04 19:12 | 52.35133 | 5.76308 | 8814 ft | 283 kts | 289° |
| 2026-05-04 19:12 | 52.35774 | 5.73285 | 8258 ft | 279 kts | 289° |
| 2026-05-04 19:13 | 52.36407 | 5.70287 | 7636 ft | 279 kts | 289° |
| 2026-05-04 19:13 | 52.37038 | 5.67291 | 7280 ft | 277 kts | 289° |
| 2026-05-04 19:13 | 52.37664 | 5.64334 | 7094 ft | 273 kts | 289° |
| 2026-05-04 19:13 | 52.38219 | 5.61355 | 6990 ft | 274 kts | 280° |
| 2026-05-04 19:14 | 52.38328 | 5.58243 | 6997 ft | 273 kts | 265° |
| 2026-05-04 19:14 | 52.38058 | 5.55251 | 6810 ft | 263 kts | 261° |
| 2026-05-04 19:14 | 52.37763 | 5.52268 | 6538 ft | 269 kts | 261° |
| 2026-05-04 19:14 | 52.37462 | 5.49223 | 6470 ft | 271 kts | 261° |
| 2026-05-04 19:15 | 52.37160 | 5.46167 | 6710 ft | 273 kts | 261° |
| 2026-05-04 19:15 | 52.36855 | 5.43085 | 6922 ft | 275 kts | 261° |
| 2026-05-04 19:15 | 52.36553 | 5.40021 | 6989 ft | 276 kts | 261° |
| 2026-05-04 19:15 | 52.36249 | 5.36930 | 6998 ft | 275 kts | 261° |
| 2026-05-04 19:16 | 52.35944 | 5.33837 | 6997 ft | 275 kts | 261° |
| 2026-05-04 19:16 | 52.35638 | 5.30749 | 6997 ft | 275 kts | 261° |
| 2026-05-04 19:16 | 52.35431 | 5.28661 | 6999 ft | 275 kts | 261° |